Time;durP1;ratioP1;P1;durP2;ratioP2;P2;SDS_P1;SDS_P2;PMS_P1;PMS_P2;Temp;Humidity;BMP_temperature;BMP_pressure;BME280_temperature;BME280_humidity;BME280_pressure;Samples;Min_cycle;Max_cycle;Signal;HPM_P1;HPM_P2
2023/07/11 00:00:43;;;;;;;;;;;;;;;29.13;52.36;98164.88;5090914;28;19924;-73
2023/07/11 00:03:10;;;;;;;;;;;;;;;29.21;52.23;98147.28;5091026;28;19931;-72
2023/07/11 00:05:36;;;;;;;;;;;;;;;29.22;52.50;98154.34;5090719;28;19940;-72
2023/07/11 00:08:03;;;;;;;;;;;;;;;29.25;52.23;98153.63;5090703;28;19983;-72
2023/07/11 00:10:31;;;;;;;;;;;;;;;29.24;52.23;98146.56;5090360;28;19925;-73
2023/07/11 00:12:57;;;;;;;;;;;;;;;29.21;52.38;98161.84;5090638;28;19991;-74
2023/07/11 00:15:24;;;;;;;;;;;;;;;28.94;53.41;98157.63;5090854;28;20271;-72
2023/07/11 00:17:51;;;;;;;;;;;;;;;28.50;54.78;98156.72;5081205;28;19925;-73
2023/07/11 00:20:18;;;;;;;;;;;;;;;28.29;55.42;98162.72;5090362;28;20015;-73
2023/07/11 00:22:45;;;;;;;;;;;;;;;28.59;54.57;98159.97;5090434;28;19947;-73
2023/07/11 00:25:12;;;;;;;;;;;;;;;28.77;54.34;98150.78;5090232;28;19931;-73
2023/07/11 00:27:40;;;;;;;;;;;;;;;28.88;54.07;98146.19;5080747;28;19925;-73
2023/07/11 00:30:07;;;;;;;;;;;;;;;28.98;54.06;98150.19;5090695;28;19960;-73
2023/07/11 00:32:34;;;;;;;;;;;;;;;29.02;53.90;98144.75;5090919;28;19932;-73
2023/07/11 00:35:00;;;;;;;;;;;;;;;29.03;53.96;98136.09;5091661;28;19959;-73
2023/07/11 00:37:26;;;;;;;;;;;;;;;29.03;54.21;98135.34;5089843;28;19995;-74
2023/07/11 00:39:53;;;;;;;;;;;;;;;29.00;54.54;98147.09;5090664;28;19936;-74
2023/07/11 00:42:19;;;;;;;;;;;;;;;29.01;54.38;98143.16;5090737;28;19979;-73
2023/07/11 00:44:51;;;;;;;;;;;;;;;29.02;54.42;98139.25;5090218;28;19987;-73
2023/07/11 00:47:17;;;;;;;;;;;;;;;29.01;54.87;98137.66;5092712;28;19995;-74
2023/07/11 00:49:44;;;;;;;;;;;;;;;29.02;54.92;98137.28;5093500;28;19984;-73
2023/07/11 00:52:11;;;;;;;;;;;;;;;28.98;54.74;98130.16;5092338;28;19924;-73
2023/07/11 00:54:38;;;;;;;;;;;;;;;28.96;55.08;98127.81;5093160;28;19932;-74
2023/07/11 00:57:08;;;;;;;;;;;;;;;28.91;55.30;98134.41;5093408;28;19932;-74
2023/07/11 00:59:35;;;;;;;;;;;;;;;28.93;55.34;98126.59;5093520;28;19940;-73
2023/07/11 01:02:04;;;;;;;;;;;;;;;28.91;55.66;98120.69;5093372;28;20015;-73
2023/07/11 01:04:31;;;;;;;;;;;;;;;28.90;55.46;98121.88;5093138;28;19952;-73
2023/07/11 01:06:57;;;;;;;;;;;;;;;28.90;55.61;98121.06;5091884;28;19928;-73
2023/07/11 01:09:23;;;;;;;;;;;;;;;28.88;55.44;98124.19;5083562;28;19979;-73
2023/07/11 01:11:52;;;;;;;;;;;;;;;28.87;55.79;98128.09;5092866;28;20011;-73
2023/07/11 01:14:18;;;;;;;;;;;;;;;28.84;55.42;98117.84;5083684;28;19925;-74
2023/07/11 01:16:45;;;;;;;;;;;;;;;28.82;55.54;98120.19;5083890;28;19992;-74
2023/07/11 01:19:13;;;;;;;;;;;;;;;28.79;55.55;98109.16;5094523;28;19951;-73
2023/07/11 01:21:40;;;;;;;;;;;;;;;28.75;55.82;98111.88;5093511;28;19936;-73
2023/07/11 01:24:07;;;;;;;;;;;;;;;28.75;55.84;98111.09;5093300;28;19984;-73
2023/07/11 01:26:33;;;;;;;;;;;;;;;28.75;55.62;98113.84;5092853;28;20008;-73
2023/07/11 01:29:00;;;;;;;;;;;;;;;28.73;55.55;98111.47;5092954;28;19942;-73
2023/07/11 01:31:26;;;;;;;;;;;;;;;28.70;55.57;98114.97;5093060;28;19991;-73
2023/07/11 01:33:53;;;;;;;;;;;;;;;28.67;55.97;98106.69;5092650;28;19964;-73
2023/07/11 01:36:19;;;;;;;;;;;;;;;28.65;56.08;98106.28;5092676;28;19963;-73
2023/07/11 01:38:47;;;;;;;;;;;;;;;28.66;56.26;98102.34;5092739;28;19935;-73
2023/07/11 01:41:13;;;;;;;;;;;;;;;28.59;56.46;98111.31;5092905;28;19992;-73
2023/07/11 01:43:39;;;;;;;;;;;;;;;28.58;56.43;98106.97;5092538;28;19987;-73
2023/07/11 01:46:06;;;;;;;;;;;;;;;28.57;56.42;98099.88;5092456;28;19925;-73
2023/07/11 01:48:32;;;;;;;;;;;;;;;28.54;56.82;98099.84;5092396;28;19991;-73
2023/07/11 01:50:58;;;;;;;;;;;;;;;28.50;56.67;98102.56;5092319;28;19956;-73
2023/07/11 01:53:24;;;;;;;;;;;;;;;28.51;56.68;98093.13;5092391;28;19991;-74
2023/07/11 01:55:59;;;;;;;;;;;;;;;28.47;56.88;98092.34;5092064;28;20331;-74
2023/07/11 01:58:25;;;;;;;;;;;;;;;28.49;57.11;98094.69;5091202;28;19996;-73
2023/07/11 02:00:52;;;;;;;;;;;;;;;28.48;57.23;98098.59;5085739;28;19996;-73
2023/07/11 02:03:18;;;;;;;;;;;;;;;28.43;57.21;98088.75;5088793;28;20038;-73
2023/07/11 02:05:44;;;;;;;;;;;;;;;28.45;57.55;98086.41;5091909;28;19983;-73
2023/07/11 02:08:10;;;;;;;;;;;;;;;28.44;57.66;98084.84;5092092;28;19931;-73
2023/07/11 02:10:37;;;;;;;;;;;;;;;28.47;57.32;98075.06;5091910;28;19970;-73
2023/07/11 02:13:04;;;;;;;;;;;;;;;28.42;57.79;98084.41;5091824;28;19966;-73
2023/07/11 02:15:32;;;;;;;;;;;;;;;28.42;57.72;98076.97;5092459;28;19924;-73
2023/07/11 02:17:58;;;;;;;;;;;;;;;28.42;57.67;98084.41;5094160;28;19924;-73
2023/07/11 02:20:24;;;;;;;;;;;;;;;28.43;57.91;98080.50;5091782;28;19925;-73
2023/07/11 02:22:51;;;;;;;;;;;;;;;28.38;58.27;98083.56;5091935;28;19970;-73
2023/07/11 02:25:17;;;;;;;;;;;;;;;28.33;58.46;98078.41;5091608;28;19996;-73
2023/07/11 02:27:43;;;;;;;;;;;;;;;28.30;58.41;98088.22;5091723;28;19971;-73
2023/07/11 02:30:11;;;;;;;;;;;;;;;28.28;58.61;98085.06;5081845;28;19952;-73
2023/07/11 02:32:39;;;;;;;;;;;;;;;28.30;58.76;98081.91;5081796;28;20019;-73
2023/07/11 02:35:06;;;;;;;;;;;;;;;28.25;58.96;98076.78;5091421;28;19924;-73
2023/07/11 02:37:32;;;;;;;;;;;;;;;28.18;59.14;98082.16;5091365;28;19964;-73
2023/07/11 02:39:58;;;;;;;;;;;;;;;28.22;59.01;98088.50;5091385;28;19991;-72
2023/07/11 02:42:25;;;;;;;;;;;;;;;28.21;59.17;98089.66;5091312;28;20441;-72
2023/07/11 02:44:51;;;;;;;;;;;;;;;28.21;59.42;98087.72;5091321;28;19975;-72
2023/07/11 02:47:19;;;;;;;;;;;;;;;28.24;59.41;98078.72;5091181;28;20000;-73
2023/07/11 02:49:45;;;;;;;;;;;;;;;28.17;60.14;98083.31;5091152;28;19959;-73
2023/07/11 02:52:11;;;;;;;;;;;;;;;28.15;60.23;98082.91;5091058;28;19935;-73
2023/07/11 02:54:38;;;;;;;;;;;;;;;28.14;60.17;98078.59;5090944;28;19960;-73
2023/07/11 02:57:06;;;;;;;;;;;;;;;28.17;60.56;98077.84;5091196;28;20023;-73
2023/07/11 02:59:33;;;;;;;;;;;;;;;28.15;60.69;98074.69;5091162;28;19975;-73
2023/07/11 03:01:59;;;;;;;;;;;;;;;28.13;61.04;98071.53;5091015;28;19924;-73
2023/07/11 03:04:27;;;;;;;;;;;;;;;28.12;60.98;98070.72;5090733;28;19952;-73
2023/07/11 03:06:53;;;;;;;;;;;;;;;28.06;61.03;98063.19;5090888;28;19992;-73
2023/07/11 03:09:20;;;;;;;;;;;;;;;28.09;61.30;98065.19;5090726;28;19924;-73
2023/07/11 03:11:46;;;;;;;;;;;;;;;28.08;61.30;98069.09;5091093;28;19947;-73
2023/07/11 03:14:12;;;;;;;;;;;;;;;28.08;61.20;98063.59;5090748;28;19979;-73
2023/07/11 03:16:39;;;;;;;;;;;;;;;28.04;61.74;98071.00;5090730;28;19924;-73
2023/07/11 03:19:05;;;;;;;;;;;;;;;28.03;61.39;98067.47;5090757;28;19928;-73
2023/07/11 03:21:33;;;;;;;;;;;;;;;28.04;61.40;98065.50;5089414;28;20017;-73
2023/07/11 03:23:59;;;;;;;;;;;;;;;28.00;61.72;98067.41;5090724;28;19984;-73
2023/07/11 03:26:25;;;;;;;;;;;;;;;27.97;61.83;98066.22;5090706;28;19924;-73
2023/07/11 03:28:52;;;;;;;;;;;;;;;27.98;62.13;98069.75;5090680;28;19924;-73
2023/07/11 03:31:18;;;;;;;;;;;;;;;27.94;62.38;98068.91;5090342;28;19996;-73
2023/07/11 03:33:46;;;;;;;;;;;;;;;27.92;62.63;98071.22;5090479;28;19987;-73
2023/07/11 03:36:12;;;;;;;;;;;;;;;27.89;62.79;98062.56;5090200;28;19924;-73
2023/07/11 03:38:40;;;;;;;;;;;;;;;27.89;62.70;98062.56;5090192;28;20019;-73
2023/07/11 03:41:06;;;;;;;;;;;;;;;27.89;62.89;98068.06;5081941;28;19987;-73
2023/07/11 03:43:33;;;;;;;;;;;;;;;27.84;63.18;98073.88;5089309;28;20432;-73
2023/07/11 03:45:59;;;;;;;;;;;;;;;27.85;63.34;98064.47;5090227;28;19991;-74
2023/07/11 03:48:25;;;;;;;;;;;;;;;27.86;63.68;98070.75;5090226;28;19992;-74
2023/07/11 03:50:52;;;;;;;;;;;;;;;27.84;63.54;98064.84;5090242;28;20007;-74
2023/07/11 03:53:18;;;;;;;;;;;;;;;27.85;63.57;98066.44;5090162;28;19924;-74
2023/07/11 03:55:46;;;;;;;;;;;;;;;27.82;63.74;98076.19;5089715;28;20424;-73
2023/07/11 03:58:12;;;;;;;;;;;;;;;27.78;64.29;98072.63;5090085;28;19964;-73
2023/07/11 04:00:39;;;;;;;;;;;;;;;27.49;65.91;98067.88;5089783;28;19997;-73
2023/07/11 04:03:05;;;;;;;;;;;;;;;27.25;67.93;98065.53;5090221;28;19999;-73
2023/07/11 04:05:31;;;;;;;;;;;;;;;27.23;68.74;98073.34;5089992;28;19967;-73
2023/07/11 04:07:58;;;;;;;;;;;;;;;27.34;68.95;98071.56;5090028;28;19935;-73
2023/07/11 04:10:24;;;;;;;;;;;;;;;27.36;69.76;98071.97;5089918;28;19963;-73
2023/07/11 04:12:52;;;;;;;;;;;;;;;27.32;70.65;98071.16;5089970;28;19960;-73
2023/07/11 04:15:18;;;;;;;;;;;;;;;27.18;72.10;98076.38;5089933;28;19935;-73
2023/07/11 04:17:44;;;;;;;;;;;;;;;27.33;71.22;98075.44;5080862;28;19924;-73
2023/07/11 04:20:11;;;;;;;;;;;;;;;27.43;71.10;98072.13;5091569;28;19959;-73
2023/07/11 04:22:38;;;;;;;;;;;;;;;27.47;71.13;98067.47;5093770;28;19938;-73
2023/07/11 04:25:05;;;;;;;;;;;;;;;27.56;71.12;98070.75;5094307;28;19971;-73
2023/07/11 04:27:31;;;;;;;;;;;;;;;27.59;70.79;98078.22;5093980;28;19925;-73
2023/07/11 04:29:59;;;;;;;;;;;;;;;27.48;71.46;98071.78;5093737;28;19967;-72
2023/07/11 04:32:25;;;;;;;;;;;;;;;27.49;71.95;98076.13;5093752;28;19955;-72
2023/07/11 04:34:51;;;;;;;;;;;;;;;27.56;71.83;98075.44;5093784;28;19925;-72
2023/07/11 04:37:18;;;;;;;;;;;;;;;27.62;71.77;98063.78;5093878;28;20461;-72
2023/07/11 04:39:44;;;;;;;;;;;;;;;27.59;72.16;98070.00;5093802;28;19984;-73
2023/07/11 04:42:10;;;;;;;;;;;;;;;27.62;72.42;98074.75;5093688;28;19996;-72
2023/07/11 04:44:37;;;;;;;;;;;;;;;27.59;72.45;98078.22;5093403;28;19999;-73
2023/07/11 04:47:06;;;;;;;;;;;;;;;27.51;72.50;98073.81;5093417;28;19952;-73
2023/07/11 04:49:32;;;;;;;;;;;;;;;27.60;72.00;98071.59;5093353;28;20011;-73
2023/07/11 04:51:59;;;;;;;;;;;;;;;27.46;73.40;98068.63;5092113;28;19952;-73
2023/07/11 04:54:25;;;;;;;;;;;;;;;27.31;74.57;98078.56;5093425;28;20015;-73
2023/07/11 04:56:55;;;;;;;;;;;;;;;27.24;75.53;98069.44;5093481;28;19984;-73
2023/07/11 04:59:21;;;;;;;;;;;;;;;27.37;74.44;98062.59;5084257;28;20071;-73
2023/07/11 05:01:47;;;;;;;;;;;;;;;27.48;74.02;98068.28;5094925;28;19935;-73
2023/07/11 05:04:15;;;;;;;;;;;;;;;27.53;74.10;98076.97;5093946;28;19925;-72
2023/07/11 05:06:41;;;;;;;;;;;;;;;27.57;73.71;98077.81;5085353;28;19977;-73
2023/07/11 05:09:08;;;;;;;;;;;;;;;27.59;73.70;98080.19;5093527;28;19963;-73
2023/07/11 05:11:36;;;;;;;;;;;;;;;27.52;74.13;98080.06;5093327;28;19924;-73
2023/07/11 05:14:02;;;;;;;;;;;;;;;27.57;73.64;98074.28;5093706;28;19924;-72
2023/07/11 05:16:31;;;;;;;;;;;;;;;27.43;75.08;98077.59;5092977;28;19999;-72
2023/07/11 05:18:58;;;;;;;;;;;;;;;27.34;75.23;98068.81;5093112;28;19924;-73
2023/07/11 05:21:27;;;;;;;;;;;;;;;27.39;75.57;98070.47;5092940;28;19944;-73
2023/07/11 05:23:55;;;;;;;;;;;;;;;27.21;77.89;98067.44;5091235;28;20003;-73
2023/07/11 05:26:21;;;;;;;;;;;;;;;26.81;83.01;98066.00;5092641;28;19959;-73
2023/07/11 05:28:47;;;;;;;;;;;;;;;26.55;84.74;98065.91;5092747;28;20006;-72
2023/07/11 05:31:14;;;;;;;;;;;;;;;26.69;83.53;98066.16;5083304;28;19984;-72
2023/07/11 05:33:40;;;;;;;;;;;;;;;27.04;80.49;98067.94;5106940;28;19956;-72
2023/07/11 05:36:32;;;;;;;;;;;;;;;27.23;79.29;98060.41;5092427;28;19930;-72
2023/07/11 05:39:00;;;;;;;;;;;;;;;27.46;77.66;98063.16;5086773;28;19921;-72
2023/07/11 05:41:26;;;;;;;;;;;;;;;27.48;77.95;98063.56;5092834;28;19940;-73
2023/07/11 05:43:53;;;;;;;;;;;;;;;27.48;78.38;98066.28;5092605;28;19928;-73
2023/07/11 05:46:20;;;;;;;;;;;;;;;27.55;77.73;98073.84;5092504;28;19984;-73
2023/07/11 05:48:46;;;;;;;;;;;;;;;27.48;78.25;98063.56;5091973;28;19960;-73
2023/07/11 05:51:14;;;;;;;;;;;;;;;27.59;77.35;98063.72;5092097;28;19971;-73
2023/07/11 05:53:40;;;;;;;;;;;;;;;27.73;76.43;98063.94;5092047;28;19970;-73
2023/07/11 05:56:08;;;;;;;;;;;;;;;27.77;76.15;98065.53;5092247;28;19988;-73
2023/07/11 05:58:35;;;;;;;;;;;;;;;27.78;76.77;98058.91;5082581;28;20007;-73
2023/07/11 06:01:02;;;;;;;;;;;;;;;27.89;76.65;98057.06;5092090;28;19950;-73
2023/07/11 06:03:30;;;;;;;;;;;;;;;27.58;79.62;98057.44;5092005;28;19952;-73
2023/07/11 06:05:59;;;;;;;;;;;;;;;27.09;84.47;98056.66;5091916;28;19928;-73
2023/07/11 06:08:25;;;;;;;;;;;;;;;27.36;81.17;98061.00;5091924;28;19992;-73
2023/07/11 06:10:52;;;;;;;;;;;;;;;27.51;80.15;98068.34;5091781;28;19956;-73
2023/07/11 06:13:19;;;;;;;;;;;;;;;27.76;79.53;98061.22;5091804;28;19959;-73
2023/07/11 06:15:46;;;;;;;;;;;;;;;28.00;77.66;98061.91;5082046;28;19991;-73
2023/07/11 06:18:12;;;;;;;;;;;;;;;28.09;77.78;98051.47;5091780;28;20032;-73
2023/07/11 06:20:38;;;;;;;;;;;;;;;27.88;78.21;98057.47;5082000;28;19924;-72
2023/07/11 06:23:05;;;;;;;;;;;;;;;27.68;81.28;98050.53;5091673;28;19960;-72
2023/07/11 06:25:31;;;;;;;;;;;;;;;27.74;79.26;98047.09;5091811;28;19962;-73
2023/07/11 06:27:57;;;;;;;;;;;;;;;27.64;82.76;98050.47;5091553;28;19936;-73
2023/07/11 06:30:25;;;;;;;;;;;;;;;27.68;81.01;98047.78;5091455;28;19983;-72
2023/07/11 06:32:51;;;;;;;;;;;;;;;27.96;80.12;98042.66;5091496;28;20378;-72
2023/07/11 06:35:18;;;;;;;;;;;;;;;27.89;81.73;98045.31;5091337;28;19960;-72
2023/07/11 06:37:44;;;;;;;;;;;;;;;28.06;80.47;98042.03;5091259;28;19924;-73
2023/07/11 06:40:11;;;;;;;;;;;;;;;28.21;80.84;98041.03;5081556;28;19925;-72
2023/07/11 06:42:37;;;;;;;;;;;;;;;27.63;85.19;98048.91;5081459;28;20004;-72
2023/07/11 06:45:04;;;;;;;;;;;;;;;27.95;83.56;98048.50;5090541;28;19958;-72
2023/07/11 06:47:33;;;;;;;;;;;;;;;28.21;81.53;98049.25;5091016;28;19924;-73
2023/07/11 06:49:59;;;;;;;;;;;;;;;28.46;79.36;98051.47;5091127;28;19962;-73
2023/07/11 06:52:25;;;;;;;;;;;;;;;28.63;77.68;98046.16;5091146;28;19924;-72
2023/07/11 06:54:52;;;;;;;;;;;;;;;28.68;76.55;98053.31;5091054;28;19938;-72
2023/07/11 06:57:19;;;;;;;;;;;;;;;28.86;75.77;98043.25;5090914;28;20344;-73
2023/07/11 06:59:47;;;;;;;;;;;;;;;28.83;76.60;98049.53;5091011;28;19924;-73
2023/07/11 07:02:13;;;;;;;;;;;;;;;28.87;76.99;98042.88;5091017;28;19931;-73
2023/07/11 07:04:41;;;;;;;;;;;;;;;28.77;77.73;98045.53;5090832;28;19965;-73
2023/07/11 07:07:07;;;;;;;;;;;;;;;28.62;78.92;98049.28;5090704;28;19931;-73
2023/07/11 07:09:33;;;;;;;;;;;;;;;28.63;79.18;98037.91;5090775;28;20011;-73
2023/07/11 07:12:00;;;;;;;;;;;;;;;28.73;78.54;98044.72;5090699;28;20035;-73
2023/07/11 07:14:26;;;;;;;;;;;;;;;28.88;77.70;98047.22;5090698;28;19924;-73
2023/07/11 07:16:53;;;;;;;;;;;;;;;28.71;79.30;98041.56;5090749;28;19928;-73
2023/07/11 07:19:19;;;;;;;;;;;;;;;28.54;80.11;98037.44;5090704;28;19932;-73
2023/07/11 07:21:47;;;;;;;;;;;;;;;28.09;84.11;98043.22;5090523;28;19948;-73
2023/07/11 07:24:13;;;;;;;;;;;;;;;27.63;87.88;98046.16;5090597;28;19960;-73
2023/07/11 07:26:41;;;;;;;;;;;;;;;27.78;87.88;98030.66;5090742;28;19975;-73
2023/07/11 07:29:07;;;;;;;;;;;;;;;28.58;82.30;98027.28;5090655;28;19924;-73
2023/07/11 07:31:33;;;;;;;;;;;;;;;28.90;79.80;98022.88;5090482;28;19995;-73
2023/07/11 07:34:00;;;;;;;;;;;;;;;29.07;79.19;98021.44;5090431;28;19924;-73
2023/07/11 07:36:26;;;;;;;;;;;;;;;28.92;80.23;98020.53;5080696;28;19948;-73
2023/07/11 07:38:54;;;;;;;;;;;;;;;28.79;79.97;98022.00;5090742;28;19984;-73
2023/07/11 07:41:20;;;;;;;;;;;;;;;29.09;79.04;98018.31;5090417;28;19931;-73
2023/07/11 07:43:47;;;;;;;;;;;;;;;29.25;77.42;98021.56;5090342;28;20316;-73
2023/07/11 07:46:15;;;;;;;;;;;;;;;28.90;78.27;98016.59;5090476;28;19987;-73
2023/07/11 07:48:41;;;;;;;;;;;;;;;28.74;79.58;98019.59;5081410;28;19959;-73
2023/07/11 07:51:08;;;;;;;;;;;;;;;28.86;79.55;98016.56;5090175;28;19924;-73
2023/07/11 07:53:35;;;;;;;;;;;;;;;28.83;77.74;98027.53;5080373;28;19921;-73
2023/07/11 07:56:07;;;;;;;;;;;;;;;29.30;77.24;98015.72;5089292;28;19968;-73
2023/07/11 07:58:34;;;;;;;;;;;;;;;29.49;74.88;98023.72;5091117;28;19924;-73
2023/07/11 08:01:00;;;;;;;;;;;;;;;29.15;74.94;98014.03;5093954;28;19931;-72
2023/07/11 08:03:26;;;;;;;;;;;;;;;28.63;77.17;98015.94;5097576;28;19996;-73
2023/07/11 08:05:54;;;;;;;;;;;;;;;28.29;80.52;98028.16;5097611;28;19939;-73
2023/07/11 08:08:20;;;;;;;;;;;;;;;28.80;79.32;98017.28;5097193;28;19921;-73
2023/07/11 08:10:46;;;;;;;;;;;;;;;28.99;77.92;98016.25;5095454;28;19924;-73
2023/07/11 08:13:14;;;;;;;;;;;;;;;29.25;75.16;98016.06;5090287;28;19925;-74
2023/07/11 08:15:42;;;;;;;;;;;;;;;29.30;75.34;98018.50;5080912;28;19925;-73
2023/07/11 08:18:08;;;;;;;;;;;;;;;29.68;72.71;98012.41;5089964;28;19931;-74
2023/07/11 08:20:35;;;;;;;;;;;;;;;29.15;72.90;98005.78;5091408;28;20365;-74
2023/07/11 08:23:01;;;;;;;;;;;;;;;28.96;74.60;98003.28;5090257;28;20012;-73
2023/07/11 08:25:28;;;;;;;;;;;;;;;29.00;74.40;98004.09;5080139;28;19924;-73
2023/07/11 08:27:54;;;;;;;;;;;;;;;29.21;73.22;98004.25;5090017;28;19932;-73
2023/07/11 08:30:22;;;;;;;;;;;;;;;29.60;71.95;98001.75;5079988;28;19925;-73
2023/07/11 08:32:48;;;;;;;;;;;;;;;29.95;69.49;97997.22;5089876;28;20253;-73
2023/07/11 08:35:15;;;;;;;;;;;;;;;29.83;69.37;97989.28;5089726;28;19924;-73
2023/07/11 08:37:41;;;;;;;;;;;;;;;29.32;70.22;97988.63;5089322;28;20150;-73
2023/07/11 08:40:09;;;;;;;;;;;;;;;28.70;71.91;97993.25;5089562;28;19975;-73
2023/07/11 08:42:40;;;;;;;;;;;;;;;28.52;75.64;97992.28;5090314;28;19924;-74
2023/07/11 08:45:15;;;;;;;;;;;;;;;28.63;76.56;97985.69;5082043;28;19924;-73
2023/07/11 08:47:45;;;;;;;;;;;;;;;28.90;75.93;97984.41;5090466;28;19959;-72
2023/07/11 08:50:14;;;;;;;;;;;;;;;28.94;73.33;97976.16;5090308;28;19950;-73
2023/07/11 08:52:42;;;;;;;;;;;;;;;28.82;71.69;97988.25;5089853;28;20586;-73
2023/07/11 08:55:12;;;;;;;;;;;;;;;28.88;74.03;97981.22;5081172;28;19925;-73
2023/07/11 08:57:43;;;;;;;;;;;;;;;28.98;73.54;97985.22;5089245;28;20000;-73
2023/07/11 09:00:12;;;;;;;;;;;;;;;29.04;73.36;97977.41;5089851;28;19924;-73
2023/07/11 09:02:41;;;;;;;;;;;;;;;29.48;71.43;97969.84;5089814;28;19931;-73
2023/07/11 09:05:13;;;;;;;;;;;;;;;29.30;70.04;97978.00;5089890;28;19925;-73
2023/07/11 09:07:40;;;;;;;;;;;;;;;29.32;69.25;97967.41;5091612;28;19924;-73
2023/07/11 09:10:18;;;;;;;;;;;;;;;29.47;68.92;97968.25;5093445;28;20031;-73
2023/07/11 09:12:49;;;;;;;;;;;;;;;29.81;65.37;97960.53;5084200;28;19924;-73
2023/07/11 09:15:18;;;;;;;;;;;;;;;29.77;64.61;97966.03;5093312;28;19964;-72
2023/07/11 09:17:51;;;;;;;;;;;;;;;29.56;62.03;97954.94;5085288;28;19981;-73
2023/07/11 09:20:25;;;;;;;;;;;;;;;29.53;60.41;97946.66;5083537;28;19934;-73
2023/07/11 09:22:56;;;;;;;;;;;;;;;29.61;58.56;97940.03;5093637;28;19966;-73
2023/07/11 09:25:24;;;;;;;;;;;;;;;29.66;61.15;97940.44;5093088;28;19924;-72
2023/07/11 09:27:53;;;;;;;;;;;;;;;29.69;61.16;97942.41;5092844;28;19924;-72
2023/07/11 09:30:27;;;;;;;;;;;;;;;29.80;60.83;97936.97;5083141;28;19988;-72
2023/07/11 09:32:53;;;;;;;;;;;;;;;29.88;60.64;97941.31;5092556;28;19976;-72
2023/07/11 09:35:24;;;;;;;;;;;;;;;30.19;60.73;97935.09;5092564;28;19931;-73
2023/07/11 09:37:52;;;;;;;;;;;;;;;30.34;60.26;97933.94;5092464;28;19988;-72
2023/07/11 09:40:23;;;;;;;;;;;;;;;30.30;58.61;97938.66;5092420;28;19984;-72
2023/07/11 09:42:51;;;;;;;;;;;;;;;30.46;57.72;97930.03;5092566;28;19960;-72
2023/07/11 09:45:18;;;;;;;;;;;;;;;30.18;56.34;97922.50;5092292;28;19924;-72
2023/07/11 09:47:55;;;;;;;;;;;;;;;30.03;56.80;97923.66;5092136;28;19959;-72
2023/07/11 09:50:32;;;;;;;;;;;;;;;30.03;57.16;97929.16;5091953;28;19931;-72
2023/07/11 09:53:00;;;;;;;;;;;;;;;30.12;56.53;97921.31;5092101;28;19978;-72
2023/07/11 09:55:30;;;;;;;;;;;;;;;30.13;56.79;97917.38;5092062;28;19952;-72
2023/07/11 09:57:56;;;;;;;;;;;;;;;30.29;56.94;97919.78;5082242;28;19984;-73
2023/07/11 10:00:23;;;;;;;;;;;;;;;30.15;56.28;97911.47;5092161;28;19932;-73
2023/07/11 10:02:49;;;;;;;;;;;;;;;30.29;56.64;97908.75;5092088;28;19959;-71
2023/07/11 10:05:16;;;;;;;;;;;;;;;30.43;56.15;97911.53;5092032;28;19936;-72
2023/07/11 10:07:44;;;;;;;;;;;;;;;30.36;56.33;97904.00;5083764;28;19993;-73
2023/07/11 10:10:14;;;;;;;;;;;;;;;30.61;55.66;97904.03;5091788;28;19954;-73
2023/07/11 10:12:42;;;;;;;;;;;;;;;30.58;55.24;97904.84;5092051;28;19976;-73
2023/07/11 10:15:14;;;;;;;;;;;;;;;30.51;55.34;97902.09;5091940;28;19992;-73
2023/07/11 10:17:42;;;;;;;;;;;;;;;30.41;55.63;97897.38;5091530;28;19925;-73
2023/07/11 10:20:13;;;;;;;;;;;;;;;30.46;55.61;97900.50;5090713;28;19924;-73
2023/07/11 10:22:42;;;;;;;;;;;;;;;30.45;55.68;97898.16;5093060;28;19970;-73
2023/07/11 10:25:17;;;;;;;;;;;;;;;30.51;55.32;97902.09;5083726;28;20438;-71
2023/07/11 10:27:47;;;;;;;;;;;;;;;30.46;54.96;97894.22;5079160;28;19975;-71
2023/07/11 10:30:17;;;;;;;;;;;;;;;30.44;55.18;97885.56;5087945;28;19924;-72
2023/07/11 10:32:46;;;;;;;;;;;;;;;30.62;55.38;97886.31;5083730;28;19963;-72
2023/07/11 10:35:14;;;;;;;;;;;;;;;30.77;54.83;97893.41;5091721;28;19991;-73
2023/07/11 10:37:43;;;;;;;;;;;;;;;30.89;54.21;97886.66;5091406;28;19957;-72
2023/07/11 10:40:15;;;;;;;;;;;;;;;30.76;54.55;97877.25;5091566;28;19971;-72
2023/07/11 10:42:45;;;;;;;;;;;;;;;31.02;54.46;97885.09;5091304;28;19967;-73
2023/07/11 10:45:14;;;;;;;;;;;;;;;31.09;54.42;97876.81;5091577;28;19930;-73
2023/07/11 10:47:44;;;;;;;;;;;;;;;31.27;54.24;97869.25;5091525;28;20015;-73
2023/07/11 10:50:18;;;;;;;;;;;;;;;31.08;53.65;97863.41;5091193;28;19991;-73
2023/07/11 10:52:47;;;;;;;;;;;;;;;30.99;53.65;97863.84;5083310;28;19929;-72
2023/07/11 10:55:15;;;;;;;;;;;;;;;30.83;53.97;97860.69;5091350;28;19960;-72
2023/07/11 10:57:45;;;;;;;;;;;;;;;30.84;54.12;97860.31;5073836;28;19924;-73
2023/07/11 11:00:16;;;;;;;;;;;;;;;31.00;54.04;97849.66;5092099;28;19925;-73
2023/07/11 11:02:49;;;;;;;;;;;;;;;31.12;54.50;97845.66;5083585;28;19924;-73
2023/07/11 11:05:21;;;;;;;;;;;;;;;31.31;53.99;97847.97;5092012;28;19976;-73
2023/07/11 11:07:50;;;;;;;;;;;;;;;31.33;53.81;97836.50;5084290;28;19977;-73
2023/07/11 11:10:26;;;;;;;;;;;;;;;31.43;54.06;97830.16;5091618;28;19935;-73
2023/07/11 11:12:56;;;;;;;;;;;;;;;31.41;53.69;97835.31;5096436;28;19996;-73
2023/07/11 11:15:28;;;;;;;;;;;;;;;31.35;53.77;97825.88;5088304;28;19924;-73
2023/07/11 11:18:01;;;;;;;;;;;;;;;31.44;53.85;97823.47;5090811;28;20044;-73
2023/07/11 11:20:31;;;;;;;;;;;;;;;31.58;53.99;97826.16;5091164;28;19925;-73
2023/07/11 11:23:03;;;;;;;;;;;;;;;31.78;53.60;97807.13;5091125;28;19980;-73
2023/07/11 11:25:34;;;;;;;;;;;;;;;31.84;53.17;97803.53;5091151;28;19984;-73
2023/07/11 11:28:07;;;;;;;;;;;;;;;31.63;52.72;97795.34;5090805;28;19924;-73
2023/07/11 11:30:42;;;;;;;;;;;;;;;31.49;52.86;97790.72;5081293;28;19935;-73
2023/07/11 11:33:18;;;;;;;;;;;;;;;31.52;53.65;97783.59;5091638;28;19935;-75
2023/07/11 11:35:47;;;;;;;;;;;;;;;31.68;53.70;97788.63;5084024;28;19924;-72
2023/07/11 11:38:22;;;;;;;;;;;;;;;31.81;53.25;97787.75;5097703;28;19928;-72
2023/07/11 11:40:52;;;;;;;;;;;;;;;31.85;54.08;97777.44;5090492;28;19920;-72
2023/07/11 11:43:21;;;;;;;;;;;;;;;32.08;53.06;97769.41;5097721;28;19959;-72
2023/07/11 11:45:48;;;;;;;;;;;;;;;31.92;51.86;97771.88;5097145;28;19909;-73
2023/07/11 11:48:17;;;;;;;;;;;;;;;31.95;52.20;97771.06;5091688;28;19924;-73
2023/07/11 11:50:44;;;;;;;;;;;;;;;31.94;52.88;97769.47;5082373;28;20018;-73
2023/07/11 11:53:19;;;;;;;;;;;;;;;32.12;52.89;97772.16;5090366;28;20032;-73
2023/07/11 11:55:47;;;;;;;;;;;;;;;32.24;52.75;97766.13;5080922;28;19983;-73
2023/07/11 11:58:16;;;;;;;;;;;;;;;32.19;51.81;97765.78;5089914;28;19925;-73
2023/07/11 12:00:47;;;;;;;;;;;;;;;32.08;51.86;97765.84;5081858;28;20496;-74
2023/07/11 12:03:19;;;;;;;;;;;;;;;32.00;52.17;97754.03;5090103;28;19925;-73
2023/07/11 12:05:48;;;;;;;;;;;;;;;32.10;52.35;97755.19;5082315;28;19971;-74
2023/07/11 12:08:25;;;;;;;;;;;;;;;32.25;52.06;97756.59;5080517;28;19928;-74
2023/07/11 12:11:01;;;;;;;;;;;;;;;32.24;52.22;97754.28;5083453;28;19931;-74
2023/07/11 12:13:29;;;;;;;;;;;;;;;32.46;51.79;97747.34;5089984;28;20084;-73
2023/07/11 12:15:57;;;;;;;;;;;;;;;32.53;51.80;97747.25;5089900;28;19929;-74
2023/07/11 12:18:41;;;;;;;;;;;;;;;32.52;51.39;97737.41;5090685;28;19928;-73
2023/07/11 12:21:22;;;;;;;;;;;;;;;32.50;52.03;97734.25;5090137;28;19925;-73
2023/07/11 12:23:49;;;;;;;;;;;;;;;32.64;52.08;97727.81;5083433;28;19967;-73
2023/07/11 12:26:17;;;;;;;;;;;;;;;32.35;51.10;97727.31;5080706;28;19971;-72
2023/07/11 12:28:45;;;;;;;;;;;;;;;32.72;50.96;97718.22;5081660;28;19976;-73
2023/07/11 12:31:20;;;;;;;;;;;;;;;32.76;50.79;97722.53;5089731;28;19983;-73
2023/07/11 12:33:53;;;;;;;;;;;;;;;32.74;51.47;97710.31;5082250;28;19931;-73
2023/07/11 12:36:29;;;;;;;;;;;;;;;32.77;51.35;97706.72;5089960;28;19925;-73
2023/07/11 12:39:00;;;;;;;;;;;;;;;32.94;48.92;97709.25;5089833;28;20004;-73
2023/07/11 12:41:30;;;;;;;;;;;;;;;32.81;49.67;97702.69;5089721;28;19984;-73
2023/07/11 12:43:59;;;;;;;;;;;;;;;32.93;49.91;97709.69;5093609;28;20003;-74
2023/07/11 12:46:34;;;;;;;;;;;;;;;33.14;48.87;97695.56;5093583;28;19934;-73
2023/07/11 12:49:01;;;;;;;;;;;;;;;33.11;48.42;97691.63;5086156;28;19925;-73
2023/07/11 12:51:31;;;;;;;;;;;;;;;33.22;48.20;97685.16;5091394;28;19924;-73